Time;durP1;ratioP1;P1;durP2;ratioP2;P2;SDS_P1;SDS_P2;PMS_P1;PMS_P2;Temp;Humidity;BMP_temperature;BMP_pressure;BME280_temperature;BME280_humidity;BME280_pressure;Samples;Min_cycle;Max_cycle;Signal;HPM_P1;HPM_P2
2021/01/02 00:00:50;;;;;;;1.10;1.07;;;1.20;98.00;;;;;;5073136;28;20463;-65
2021/01/02 00:04:00;;;;;;;1.10;1.00;;;1.20;98.00;;;;;;5075239;28;20471;-64
2021/01/02 00:06:43;;;;;;;1.20;1.20;;;1.30;98.00;;;;;;5073374;28;20462;-65
2021/01/02 00:09:17;;;;;;;1.33;1.33;;;1.30;98.00;;;;;;5075233;28;20469;-66
2021/01/02 00:12:02;;;;;;;1.20;1.10;;;1.20;98.00;;;;;;5072805;28;20456;-67
2021/01/02 00:14:42;;;;;;;1.10;1.00;;;1.20;98.00;;;;;;5074925;28;20787;-65
2021/01/02 00:17:42;;;;;;;1.50;1.20;;;1.20;98.00;;;;;;5075281;28;20456;-66
2021/01/02 00:20:26;;;;;;;1.20;1.10;;;1.20;98.00;;;;;;5070633;28;20467;-65
2021/01/02 00:22:56;;;;;;;1.67;1.20;;;1.20;98.00;;;;;;5074895;28;20489;-65
2021/01/02 00:25:28;;;;;;;1.53;1.43;;;1.20;98.00;;;;;;5072584;28;20467;-65
2021/01/02 00:28:21;;;;;;;3.20;2.03;;;1.20;98.00;;;;;;5074854;28;20480;-65
2021/01/02 00:31:19;;;;;;;1.10;1.00;;;1.30;98.00;;;;;;5071974;28;20455;-66
2021/01/02 00:34:24;;;;;;;1.30;1.20;;;1.30;98.00;;;;;;5074855;28;20554;-65
2021/01/02 00:37:01;;;;;;;1.10;1.00;;;1.20;98.00;;;;;;5062096;28;20455;-66
2021/01/02 00:39:44;;;;;;;1.60;1.50;;;1.20;98.00;;;;;;5074770;28;20470;-66
2021/01/02 00:42:13;;;;;;;1.10;1.00;;;1.20;98.00;;;;;;5072829;28;20953;-67
2021/01/02 00:44:42;;;;;;;1.10;0.90;;;1.10;98.00;;;;;;5072917;28;20469;-65
2021/01/02 00:47:11;;;;;;;1.10;1.00;;;1.10;98.00;;;;;;5073918;28;20482;-66
2021/01/02 00:49:37;;;;;;;1.83;1.73;;;1.10;98.00;;;;;;5074271;28;20938;-66
2021/01/02 00:52:15;;;;;;;1.20;1.20;;;0.90;98.00;;;;;;5071952;28;20961;-64
2021/01/02 00:54:54;;;;;;;1.40;1.30;;;0.80;98.00;;;;;;5073967;28;20463;-65
2021/01/02 00:57:45;;;;;;;1.10;0.90;;;0.80;98.00;;;;;;5072946;28;20885;-66
2021/01/02 01:00:17;;;;;;;1.43;1.10;;;0.90;98.00;;;;;;5071809;28;20519;-64
2021/01/02 01:03:05;;;;;;;2.63;1.40;;;0.90;98.00;;;;;;5073744;28;20530;-64
2021/01/02 01:05:34;;;;;;;1.10;1.00;;;0.90;98.00;;;;;;5070719;28;20459;-66
2021/01/02 01:08:01;;;;;;;1.13;1.03;;;1.00;98.00;;;;;;5073978;28;20510;-66
2021/01/02 01:10:29;;;;;;;1.30;1.20;;;1.00;98.00;;;;;;5071912;28;20463;-64
2021/01/02 01:13:02;;;;;;;1.10;1.00;;;1.00;98.00;;;;;;5073747;28;20513;-65
2021/01/02 01:15:29;;;;;;;1.10;1.00;;;1.10;98.00;;;;;;5072050;28;20470;-65
2021/01/02 01:18:18;;;;;;;1.10;1.10;;;1.10;98.00;;;;;;5073909;28;20459;-66
2021/01/02 01:20:46;;;;;;;3.73;2.50;;;1.00;98.00;;;;;;5071524;28;21015;-67
2021/01/02 01:23:49;;;;;;;1.37;1.27;;;0.80;98.00;;;;;;5074079;28;20524;-66
2021/01/02 01:26:41;;;;;;;1.20;1.20;;;0.60;98.00;;;;;;5071649;28;20454;-65
2021/01/02 01:29:18;;;;;;;2.90;1.30;;;0.50;98.00;;;;;;5074018;28;20463;-66
2021/01/02 01:31:46;;;;;;;7.33;2.53;;;0.50;98.00;;;;;;5071944;28;20467;-65
2021/01/02 01:34:21;;;;;;;1.20;1.10;;;0.60;98.00;;;;;;5073880;28;20491;-65
2021/01/02 01:36:49;;;;;;;3.03;1.93;;;0.70;98.00;;;;;;5070167;28;20459;-64
2021/01/02 01:39:15;;;;;;;1.90;1.50;;;0.70;98.00;;;;;;5073728;28;20458;-65
2021/01/02 01:41:44;;;;;;;1.53;1.43;;;0.80;98.00;;;;;;5071660;28;20951;-64
2021/01/02 01:44:54;;;;;;;2.83;1.77;;;0.90;98.00;;;;;;5073452;28;20497;-66
2021/01/02 01:47:24;;;;;;;1.20;1.10;;;0.90;98.00;;;;;;5072182;28;20480;-65
2021/01/02 01:50:27;;;;;;;1.37;1.33;;;0.90;98.00;;;;;;5071595;28;20533;-65
2021/01/02 01:53:29;;;;;;;1.60;1.30;;;1.10;98.00;;;;;;5073318;28;20455;-65
2021/01/02 01:56:04;;;;;;;1.93;1.60;;;1.10;98.00;;;;;;5070936;28;20455;-64
2021/01/02 01:59:04;;;;;;;1.20;1.10;;;1.10;98.00;;;;;;5071759;28;20470;-65
2021/01/02 02:01:37;;;;;;;1.10;1.00;;;1.00;98.00;;;;;;5071199;28;20462;-65
2021/01/02 02:04:43;;;;;;;1.10;1.00;;;1.00;98.00;;;;;;5073058;28;20525;-64
2021/01/02 02:07:16;;;;;;;1.53;1.37;;;1.00;98.00;;;;;;5071021;28;20539;-65
2021/01/02 02:09:46;;;;;;;1.10;1.00;;;1.00;98.00;;;;;;5072956;28;20463;-65
2021/01/02 02:12:21;;;;;;;1.37;1.30;;;0.90;98.00;;;;;;5071337;28;20450;-64
2021/01/02 02:15:07;;;;;;;2.17;1.93;;;1.00;98.00;;;;;;5071928;28;20663;-66
2021/01/02 02:17:42;;;;;;;1.10;1.00;;;1.10;98.00;;;;;;5072763;28;20941;-65
2021/01/02 02:20:10;;;;;;;1.20;1.17;;;1.10;98.00;;;;;;5070599;28;20480;-66
2021/01/02 02:22:39;;;;;;;1.57;1.30;;;1.00;98.00;;;;;;5072446;28;20466;-65
2021/01/02 02:25:08;;;;;;;1.10;1.00;;;1.00;98.00;;;;;;5070400;28;20463;-65
2021/01/02 02:27:36;;;;;;;1.50;1.40;;;0.90;98.00;;;;;;5072222;28;20525;-66
2021/01/02 02:30:14;;;;;;;2.00;1.70;;;0.70;98.00;;;;;;5070150;28;20482;-65
2021/01/02 02:32:45;;;;;;;1.30;1.27;;;0.70;98.00;;;;;;5072340;28;20459;-66
2021/01/02 02:35:14;;;;;;;1.10;1.00;;;0.70;98.00;;;;;;5070275;28;20468;-65
2021/01/02 02:37:44;;;;;;;4.40;2.17;;;0.60;98.00;;;;;;5072385;28;20466;-66
2021/01/02 02:40:12;;;;;;;2.47;1.93;;;0.70;98.00;;;;;;5070307;28;20467;-65
2021/01/02 02:42:46;;;;;;;1.30;1.10;;;1.00;98.00;;;;;;5071146;28;21009;-66
2021/01/02 02:45:14;;;;;;;1.30;1.20;;;1.00;98.00;;;;;;5070480;28;20458;-64
2021/01/02 02:47:44;;;;;;;2.43;2.03;;;1.20;98.00;;;;;;5072261;28;20491;-65
2021/01/02 02:50:19;;;;;;;1.10;1.00;;;1.20;98.00;;;;;;5070176;28;21241;-65
2021/01/02 02:52:52;;;;;;;2.93;1.60;;;1.10;98.00;;;;;;5072298;28;20516;-64
2021/01/02 02:55:21;;;;;;;1.10;1.00;;;1.10;98.00;;;;;;5069819;28;20985;-64
2021/01/02 02:57:49;;;;;;;1.10;1.00;;;1.20;98.00;;;;;;5071926;28;20531;-68
2021/01/02 03:00:17;;;;;;;1.70;1.37;;;1.20;98.00;;;;;;5069594;28;20972;-65
2021/01/02 03:02:49;;;;;;;1.10;0.90;;;1.10;98.00;;;;;;5070597;28;20453;-66
2021/01/02 03:05:17;;;;;;;1.17;1.13;;;1.30;98.00;;;;;;5069810;28;20504;-64
2021/01/02 03:07:45;;;;;;;1.10;1.10;;;1.20;98.00;;;;;;5071700;28;20486;-64
2021/01/02 03:10:13;;;;;;;1.30;1.27;;;1.00;98.00;;;;;;5069799;28;20545;-65
2021/01/02 03:12:40;;;;;;;1.87;1.50;;;0.80;98.00;;;;;;5071775;28;20517;-64
2021/01/02 03:15:09;;;;;;;1.30;1.13;;;0.90;98.00;;;;;;5069706;28;20456;-64
2021/01/02 03:17:36;;;;;;;2.70;1.43;;;0.90;98.00;;;;;;5071719;28;20455;-64
2021/01/02 03:20:04;;;;;;;1.83;1.83;;;1.10;98.00;;;;;;5069453;28;20460;-65
2021/01/02 03:22:30;;;;;;;1.10;0.90;;;1.20;98.00;;;;;;5071460;28;20738;-64
2021/01/02 03:24:58;;;;;;;1.10;0.90;;;1.20;98.00;;;;;;5070884;28;20467;-64
2021/01/02 03:27:24;;;;;;;2.27;1.20;;;1.20;98.00;;;;;;5070747;28;20491;-64
2021/01/02 03:29:51;;;;;;;1.10;0.90;;;1.30;98.00;;;;;;5071647;28;20518;-64
2021/01/02 03:32:17;;;;;;;1.53;1.50;;;1.10;98.00;;;;;;5069611;28;20989;-64
2021/01/02 03:34:44;;;;;;;1.20;1.17;;;0.90;98.00;;;;;;5071377;28;20453;-63
2021/01/02 03:37:11;;;;;;;1.17;1.10;;;0.70;98.00;;;;;;5069269;28;20463;-64
2021/01/02 03:39:38;;;;;;;1.20;1.00;;;0.50;98.00;;;;;;5071199;28;20988;-65
2021/01/02 03:42:07;;;;;;;1.13;1.10;;;0.40;98.00;;;;;;5069517;28;20458;-65
2021/01/02 03:44:34;;;;;;;1.10;1.00;;;0.20;98.00;;;;;;5071166;28;20457;-63
2021/01/02 03:47:06;;;;;;;1.70;1.30;;;0.20;98.00;;;;;;5069103;28;21086;-64
2021/01/02 03:49:32;;;;;;;1.45;1.20;;;0.30;98.00;;;;;;5071384;28;20499;-65
2021/01/02 03:52:01;;;;;;;1.20;1.00;;;0.30;98.00;;;;;;5069409;28;20212;-64
2021/01/02 03:54:28;;;;;;;1.15;1.10;;;0.20;98.00;;;;;;5071753;28;21055;-64
2021/01/02 03:56:55;;;;;;;1.10;1.00;;;0.20;98.00;;;;;;5069237;28;20208;-63
2021/01/02 03:59:22;;;;;;;1.13;1.00;;;0.10;98.00;;;;;;5071238;28;20469;-65
2021/01/02 04:01:55;;;;;;;1.20;1.10;;;0.00;98.00;;;;;;5069399;28;20469;-65
2021/01/02 04:04:22;;;;;;;1.10;1.05;;;-0.10;98.00;;;;;;5071255;28;20245;-66
2021/01/02 04:06:50;;;;;;;6.47;1.40;;;-0.20;98.00;;;;;;5069296;28;20209;-65
2021/01/02 04:09:17;;;;;;;1.10;1.10;;;-0.30;98.00;;;;;;5069878;28;20306;-64
2021/01/02 04:11:45;;;;;;;3.43;2.90;;;-0.20;98.00;;;;;;5069068;28;20681;-64
2021/01/02 04:14:12;;;;;;;1.73;1.70;;;-0.10;98.00;;;;;;5071111;28;20579;-66
2021/01/02 04:16:40;;;;;;;1.40;1.30;;;0.20;98.00;;;;;;5069003;28;20551;-64
2021/01/02 04:19:07;;;;;;;1.20;1.20;;;0.20;98.00;;;;;;5053427;28;20454;-66
2021/01/02 04:21:35;;;;;;;1.30;1.20;;;0.30;98.00;;;;;;5068871;28;20450;-64
2021/01/02 04:24:02;;;;;;;1.13;1.00;;;0.30;98.00;;;;;;5070769;28;20480;-64
2021/01/02 04:26:28;;;;;;;1.10;1.07;;;0.40;98.00;;;;;;5069187;28;20465;-65
2021/01/02 04:28:56;;;;;;;9.38;1.77;;;0.40;98.00;;;;;;5070995;28;20489;-64
2021/01/02 04:31:34;;;;;;;7.23;1.67;;;0.50;98.00;;;;;;5068517;28;20209;-65
2021/01/02 04:34:01;;;;;;;1.15;1.00;;;0.60;98.00;;;;;;5053277;28;20937;-66
2021/01/02 04:36:28;;;;;;;1.20;1.20;;;0.30;98.00;;;;;;5069097;28;20212;-64
2021/01/02 04:38:55;;;;;;;1.30;1.13;;;0.10;98.00;;;;;;5074246;28;20481;-65
2021/01/02 04:41:22;;;;;;;1.43;1.30;;;0.00;98.00;;;;;;5072166;28;20453;-65
2021/01/02 04:43:49;;;;;;;1.10;1.00;;;-0.10;98.00;;;;;;5074580;28;20453;-64
2021/01/02 04:46:17;;;;;;;2.30;1.97;;;-0.20;98.00;;;;;;5072397;28;20607;-64
2021/01/02 04:48:45;;;;;;;1.20;1.20;;;-0.30;98.00;;;;;;5074280;28;21072;-65
2021/01/02 04:51:13;;;;;;;2.40;1.83;;;-0.20;98.00;;;;;;5071889;28;20205;-64
2021/01/02 04:53:40;;;;;;;1.25;1.20;;;-0.20;98.00;;;;;;5074223;28;20500;-64
2021/01/02 04:56:08;;;;;;;2.33;1.50;;;-0.20;98.00;;;;;;5071513;28;20206;-65
2021/01/02 04:58:37;;;;;;;3.07;1.73;;;-0.10;98.00;;;;;;5072786;28;20959;-65
2021/01/02 05:01:05;;;;;;;1.10;1.00;;;0.20;98.00;;;;;;5071418;28;20459;-65
2021/01/02 05:03:34;;;;;;;1.30;1.10;;;0.40;98.00;;;;;;5073564;28;20463;-64
2021/01/02 05:06:02;;;;;;;1.33;1.30;;;0.60;98.00;;;;;;5072016;28;20456;-65
2021/01/02 05:08:29;;;;;;;1.20;1.20;;;0.60;98.00;;;;;;5072881;28;20834;-64
2021/01/02 05:10:58;;;;;;;1.23;1.20;;;0.80;98.00;;;;;;5072163;28;20967;-64
2021/01/02 05:13:30;;;;;;;2.27;1.60;;;0.80;98.00;;;;;;5074088;28;20938;-66
2021/01/02 05:15:57;;;;;;;1.20;1.20;;;0.70;98.00;;;;;;5072138;28;20929;-65
2021/01/02 05:18:23;;;;;;;2.70;2.03;;;0.80;98.00;;;;;;5072611;28;20454;-64
2021/01/02 05:21:06;;;;;;;1.10;1.10;;;0.80;98.00;;;;;;5071899;28;20512;-65
2021/01/02 05:23:32;;;;;;;1.20;1.13;;;1.00;98.00;;;;;;5073832;28;21137;-65
2021/01/02 05:26:08;;;;;;;1.13;1.00;;;1.00;98.00;;;;;;5071595;28;20455;-64
2021/01/02 05:28:34;;;;;;;5.80;1.77;;;0.90;98.00;;;;;;5073683;28;20490;-65
2021/01/02 05:31:13;;;;;;;1.57;1.40;;;0.90;98.00;;;;;;5071657;28;20451;-64
2021/01/02 05:33:39;;;;;;;1.93;1.83;;;0.90;98.00;;;;;;5073679;28;20463;-65
2021/01/02 05:36:10;;;;;;;1.57;1.50;;;1.00;98.00;;;;;;5071351;28;20464;-65
2021/01/02 05:38:39;;;;;;;3.30;1.63;;;1.00;98.00;;;;;;5073435;28;20466;-64
2021/01/02 05:41:06;;;;;;;1.10;1.00;;;0.90;98.00;;;;;;5070385;28;20513;-66
2021/01/02 05:43:33;;;;;;;1.20;1.00;;;0.90;98.00;;;;;;5072141;28;20465;-65
2021/01/02 05:46:05;;;;;;;1.20;1.10;;;0.90;98.00;;;;;;5071090;28;20483;-65
2021/01/02 05:48:32;;;;;;;1.40;1.17;;;0.80;98.00;;;;;;5054448;28;20474;-64
2021/01/02 05:51:00;;;;;;;2.33;1.73;;;0.60;98.00;;;;;;5071364;28;20462;-64
2021/01/02 05:53:29;;;;;;;1.10;1.00;;;0.50;98.00;;;;;;5073039;28;20465;-64
2021/01/02 05:56:01;;;;;;;1.20;1.00;;;0.60;98.00;;;;;;5071075;28;20941;-65
2021/01/02 05:58:29;;;;;;;1.63;1.50;;;0.50;98.00;;;;;;5072885;28;20472;-64
2021/01/02 06:01:11;;;;;;;1.50;1.20;;;0.50;98.00;;;;;;5071315;28;20471;-65
2021/01/02 06:03:39;;;;;;;1.30;1.20;;;0.60;98.00;;;;;;5073042;28;20973;-64
2021/01/02 06:06:07;;;;;;;1.37;1.20;;;0.80;98.00;;;;;;5070913;28;20485;-66
2021/01/02 06:08:40;;;;;;;1.20;1.10;;;0.80;98.00;;;;;;5072584;28;20491;-66
2021/01/02 06:11:09;;;;;;;1.60;1.50;;;1.00;98.00;;;;;;5070936;28;20464;-64
2021/01/02 06:13:38;;;;;;;1.10;1.00;;;0.80;98.00;;;;;;5072870;28;20454;-64
2021/01/02 06:16:07;;;;;;;1.20;0.90;;;0.80;98.00;;;;;;5070734;28;20835;-64
2021/01/02 06:18:36;;;;;;;1.17;1.07;;;0.80;98.00;;;;;;5071574;28;20459;-64
2021/01/02 06:21:05;;;;;;;1.10;1.00;;;0.80;98.00;;;;;;5069390;28;20467;-65
2021/01/02 06:23:33;;;;;;;1.10;1.07;;;0.80;98.00;;;;;;5072729;28;21137;-65
2021/01/02 06:26:04;;;;;;;1.60;1.47;;;0.80;98.00;;;;;;5070877;28;20887;-66
2021/01/02 06:28:34;;;;;;;1.10;1.00;;;0.80;98.00;;;;;;5072602;28;20486;-65
2021/01/02 06:31:02;;;;;;;3.83;1.40;;;0.80;98.00;;;;;;5070440;28;20478;-64
2021/01/02 06:33:29;;;;;;;2.10;1.83;;;0.70;98.00;;;;;;5072557;28;20457;-66
2021/01/02 06:35:57;;;;;;;1.10;1.00;;;0.70;98.00;;;;;;5070997;28;20456;-65
2021/01/02 06:38:24;;;;;;;1.73;1.40;;;1.00;98.00;;;;;;5072466;28;20469;-65
2021/01/02 06:40:52;;;;;;;1.10;1.00;;;1.00;98.00;;;;;;5070085;28;20493;-65
2021/01/02 06:43:21;;;;;;;1.10;0.90;;;1.10;98.00;;;;;;5072281;28;20473;-64
2021/01/02 06:45:56;;;;;;;2.50;2.17;;;1.00;98.00;;;;;;5070497;28;20911;-66
2021/01/02 06:48:42;;;;;;;1.63;1.53;;;1.10;98.00;;;;;;5072159;28;20514;-64
2021/01/02 06:51:28;;;;;;;1.10;1.00;;;1.00;98.00;;;;;;5069647;28;20479;-64
2021/01/02 06:53:56;;;;;;;1.20;1.20;;;1.00;98.00;;;;;;5072252;28;20455;-64
2021/01/02 06:56:33;;;;;;;1.50;1.20;;;0.90;98.00;;;;;;5070357;28;20851;-65
2021/01/02 06:59:01;;;;;;;2.30;1.77;;;0.90;98.00;;;;;;5072000;28;20605;-64
2021/01/02 07:01:40;;;;;;;2.07;1.93;;;0.90;98.00;;;;;;5069587;28;20458;-65
2021/01/02 07:04:08;;;;;;;1.43;1.37;;;0.60;98.00;;;;;;5070667;28;20520;-65
2021/01/02 07:06:42;;;;;;;1.40;1.30;;;0.50;98.00;;;;;;5069832;28;21019;-65
2021/01/02 07:09:29;;;;;;;1.30;1.20;;;0.60;98.00;;;;;;5071792;28;20513;-67
2021/01/02 07:12:13;;;;;;;1.10;1.00;;;0.50;98.00;;;;;;5065014;28;20603;-64
2021/01/02 07:14:43;;;;;;;2.23;1.53;;;0.50;98.00;;;;;;5071809;28;20931;-65
2021/01/02 07:17:11;;;;;;;1.23;1.00;;;0.60;98.00;;;;;;5069582;28;20477;-65
2021/01/02 07:19:46;;;;;;;1.30;1.30;;;0.50;98.00;;;;;;5071761;28;21003;-65
2021/01/02 07:22:24;;;;;;;1.43;1.20;;;0.50;98.00;;;;;;5069506;28;20478;-65
2021/01/02 07:24:52;;;;;;;1.33;1.13;;;0.60;98.00;;;;;;5071553;28;20529;-64
2021/01/02 07:27:21;;;;;;;1.10;1.00;;;0.70;98.00;;;;;;5069198;28;20892;-67
2021/01/02 07:29:50;;;;;;;1.50;1.50;;;0.80;98.00;;;;;;5071409;28;20463;-65
2021/01/02 07:32:19;;;;;;;2.40;1.40;;;1.00;98.00;;;;;;5069139;28;20573;-65
2021/01/02 07:34:48;;;;;;;1.40;1.40;;;1.10;98.00;;;;;;5071467;28;20460;-65
2021/01/02 07:37:16;;;;;;;1.10;1.10;;;1.00;98.00;;;;;;5069401;28;20458;-65
2021/01/02 07:39:56;;;;;;;2.60;1.77;;;0.90;98.00;;;;;;5071472;28;20960;-65
2021/01/02 07:42:24;;;;;;;1.10;1.00;;;0.90;98.00;;;;;;5069898;28;20459;-64
2021/01/02 07:44:57;;;;;;;1.10;1.07;;;0.90;98.00;;;;;;5071817;28;20527;-67
2021/01/02 07:47:24;;;;;;;1.17;1.00;;;0.90;98.00;;;;;;5069305;28;20517;-65
2021/01/02 07:49:58;;;;;;;1.87;1.83;;;1.00;98.00;;;;;;5071363;28;20455;-65
2021/01/02 07:52:24;;;;;;;1.13;1.03;;;1.00;98.00;;;;;;5069376;28;20459;-64
2021/01/02 07:54:51;;;;;;;1.10;0.97;;;0.90;98.00;;;;;;5070127;28;20809;-65
2021/01/02 07:57:23;;;;;;;1.83;1.73;;;1.00;98.00;;;;;;5069300;28;20476;-64
2021/01/02 07:59:50;;;;;;;2.53;1.93;;;1.00;98.00;;;;;;5071337;28;20541;-65
2021/01/02 08:02:22;;;;;;;1.33;1.27;;;0.90;98.00;;;;;;5068471;28;20455;-65
2021/01/02 08:04:53;;;;;;;1.47;1.20;;;0.80;98.00;;;;;;5071320;28;20464;-65
2021/01/02 08:07:20;;;;;;;1.50;1.23;;;0.90;98.00;;;;;;5069134;28;20467;-66
2021/01/02 08:09:48;;;;;;;1.40;1.40;;;1.00;98.00;;;;;;5071177;28;20456;-65
2021/01/02 08:12:16;;;;;;;3.93;2.80;;;1.20;98.00;;;;;;5070292;28;20489;-64
2021/01/02 08:14:45;;;;;;;1.10;1.00;;;1.40;98.00;;;;;;5075280;28;20499;-66
2021/01/02 08:17:13;;;;;;;1.40;1.30;;;1.40;98.00;;;;;;5073151;28;20455;-65
2021/01/02 08:19:55;;;;;;;1.20;1.07;;;1.30;98.00;;;;;;5073606;28;20815;-65
2021/01/02 08:22:32;;;;;;;3.30;1.57;;;1.30;98.00;;;;;;5072523;28;20456;-65
2021/01/02 08:25:00;;;;;;;1.60;1.20;;;1.20;98.00;;;;;;5074520;28;21155;-65
2021/01/02 08:27:29;;;;;;;5.47;1.43;;;1.20;98.00;;;;;;5072029;28;20451;-65
2021/01/02 08:29:56;;;;;;;3.30;1.63;;;1.30;98.00;;;;;;5074269;28;20463;-65
2021/01/02 08:32:26;;;;;;;1.00;1.00;;;2.50;98.00;;;;;;5072115;28;20495;-65
2021/01/02 08:34:54;;;;;;;6.77;2.70;;;4.40;98.00;;;;;;5074112;28;20971;-67
2021/01/02 08:37:21;;;;;;;1.80;1.57;;;4.70;98.00;;;;;;5072001;28;20452;-64
2021/01/02 08:39:48;;;;;;;1.50;1.33;;;4.40;98.00;;;;;;5073974;28;20461;-64
2021/01/02 08:42:14;;;;;;;1.47;1.43;;;4.00;98.00;;;;;;5071967;28;20460;-64
2021/01/02 08:44:45;;;;;;;6.63;2.03;;;3.30;98.00;;;;;;5074022;28;20467;-65
2021/01/02 08:47:12;;;;;;;4.13;2.20;;;2.90;98.00;;;;;;5072090;28;20460;-66
2021/01/02 08:49:45;;;;;;;2.73;1.70;;;2.70;98.00;;;;;;5074586;28;20484;-66
2021/01/02 08:52:22;;;;;;;1.40;1.40;;;2.50;98.00;;;;;;5071263;28;20464;-65
2021/01/02 08:54:51;;;;;;;2.37;2.17;;;2.40;98.00;;;;;;5074285;28;20797;-66
2021/01/02 08:57:29;;;;;;;1.20;1.00;;;2.60;98.00;;;;;;5072043;28;20471;-65
2021/01/02 09:00:23;;;;;;;1.80;1.70;;;2.50;98.00;;;;;;5074476;28;21008;-64
2021/01/02 09:03:04;;;;;;;1.60;1.40;;;2.40;98.00;;;;;;5036519;28;20461;-66
2021/01/02 09:05:33;;;;;;;1.50;1.40;;;2.10;98.00;;;;;;5073001;28;20451;-65
2021/01/02 09:08:01;;;;;;;1.20;1.00;;;2.00;98.00;;;;;;5074177;28;20487;-65
2021/01/02 09:10:36;;;;;;;12.70;3.30;;;1.80;98.00;;;;;;5074238;28;20492;-66
2021/01/02 09:13:11;;;;;;;1.20;1.00;;;1.90;98.00;;;;;;5074126;28;20486;-67
2021/01/02 09:15:45;;;;;;;1.70;1.60;;;1.90;98.00;;;;;;5071959;28;20459;-64
2021/01/02 09:18:13;;;;;;;2.20;2.07;;;2.00;98.00;;;;;;5073925;28;20463;-66
2021/01/02 09:20:39;;;;;;;1.40;1.03;;;2.10;98.00;;;;;;5071766;28;20839;-65
2021/01/02 09:23:08;;;;;;;1.70;1.57;;;2.20;98.00;;;;;;5073563;28;20460;-65
2021/01/02 09:25:36;;;;;;;1.60;1.50;;;2.10;98.00;;;;;;5072777;28;20531;-65
2021/01/02 09:28:17;;;;;;;1.70;1.50;;;2.10;98.00;;;;;;5073673;28;20510;-66
2021/01/02 09:30:45;;;;;;;2.43;2.23;;;2.00;98.00;;;;;;5071630;28;20866;-66
2021/01/02 09:33:12;;;;;;;1.50;1.40;;;2.00;98.00;;;;;;5073662;28;20822;-66
2021/01/02 09:35:46;;;;;;;1.50;1.40;;;1.90;98.00;;;;;;5071887;28;21017;-65
2021/01/02 09:38:14;;;;;;;1.30;1.20;;;1.90;98.00;;;;;;5072831;28;20456;-65
2021/01/02 09:40:43;;;;;;;1.50;1.47;;;1.90;98.00;;;;;;5071537;28;20452;-65
2021/01/02 09:43:13;;;;;;;2.50;1.40;;;2.00;98.00;;;;;;5072837;28;20472;-65
2021/01/02 09:45:41;;;;;;;1.30;1.30;;;2.10;98.00;;;;;;5071988;28;20815;-65
2021/01/02 09:48:09;;;;;;;1.60;1.50;;;2.10;98.00;;;;;;5072715;28;20490;-65
2021/01/02 09:50:35;;;;;;;1.20;1.20;;;2.10;98.00;;;;;;5072027;28;20899;-65
2021/01/02 09:53:02;;;;;;;1.20;1.10;;;2.20;98.00;;;;;;5072028;28;20468;-66
2021/01/02 09:55:29;;;;;;;1.27;1.17;;;2.30;98.00;;;;;;5072656;28;20459;-66
2021/01/02 09:57:56;;;;;;;1.30;1.23;;;2.30;98.00;;;;;;5069464;28;20970;-66
2021/01/02 10:00:23;;;;;;;1.70;1.60;;;2.40;98.00;;;;;;5072341;28;20510;-66
2021/01/02 10:02:50;;;;;;;1.50;1.40;;;2.40;98.00;;;;;;5069466;28;20965;-68
2021/01/02 10:05:19;;;;;;;2.70;1.87;;;2.50;98.00;;;;;;5072371;28;20518;-67
2021/01/02 10:07:45;;;;;;;1.10;0.90;;;2.50;98.00;;;;;;5070648;28;20460;-66
2021/01/02 10:10:15;;;;;;;1.20;1.20;;;2.40;98.00;;;;;;5072866;28;20475;-65
2021/01/02 10:12:42;;;;;;;2.80;1.50;;;2.40;98.00;;;;;;5068557;28;20468;-66
2021/01/02 10:15:11;;;;;;;4.33;2.73;;;2.60;98.00;;;;;;5072783;28;20462;-67
2021/01/02 10:17:37;;;;;;;1.30;1.10;;;2.70;98.00;;;;;;5070521;28;20502;-65
2021/01/02 10:20:06;;;;;;;1.83;1.37;;;2.70;98.00;;;;;;5071563;28;20463;-64
2021/01/02 10:22:32;;;;;;;4.23;1.40;;;2.90;98.00;;;;;;5069776;28;20455;-63
2021/01/02 10:24:59;;;;;;;1.53;1.40;;;2.90;98.00;;;;;;5072211;28;20464;-63
2021/01/02 10:27:27;;;;;;;2.03;1.37;;;2.90;98.00;;;;;;5069818;28;20513;-65
2021/01/02 10:29:55;;;;;;;1.90;1.60;;;2.90;98.00;;;;;;5071960;28;20563;-66
2021/01/02 10:32:25;;;;;;;1.63;1.37;;;2.80;98.00;;;;;;5069784;28;20460;-63
2021/01/02 10:34:51;;;;;;;1.30;1.20;;;2.80;98.00;;;;;;5070065;28;20457;-63
2021/01/02 10:37:20;;;;;;;1.40;1.30;;;2.70;98.00;;;;;;5069600;28;20463;-65
2021/01/02 10:39:47;;;;;;;1.70;1.50;;;2.60;98.00;;;;;;5071286;28;20459;-65
2021/01/02 10:42:16;;;;;;;1.63;1.53;;;2.70;98.00;;;;;;5069215;28;20977;-65
2021/01/02 10:44:44;;;;;;;1.20;1.00;;;2.60;98.00;;;;;;5069872;28;20464;-65
2021/01/02 10:47:11;;;;;;;1.57;1.47;;;2.60;98.00;;;;;;5069291;28;20957;-65
2021/01/02 10:49:40;;;;;;;1.50;1.40;;;2.50;98.00;;;;;;5071532;28;20601;-64
2021/01/02 10:52:08;;;;;;;2.80;2.30;;;2.60;98.00;;;;;;5068837;28;20467;-65
2021/01/02 10:54:34;;;;;;;2.80;1.70;;;2.70;98.00;;;;;;5071153;28;20460;-65
2021/01/02 10:57:01;;;;;;;2.07;1.83;;;2.80;98.00;;;;;;5068630;28;20472;-65
2021/01/02 10:59:27;;;;;;;1.73;1.20;;;2.80;98.00;;;;;;5071474;28;20457;-66
2021/01/02 11:01:55;;;;;;;1.77;1.70;;;2.70;98.00;;;;;;5069272;28;20464;-65
2021/01/02 11:04:25;;;;;;;1.67;1.50;;;2.80;98.00;;;;;;5071530;28;20856;-67
2021/01/02 11:06:55;;;;;;;1.20;1.20;;;3.00;98.00;;;;;;5068856;28;20478;-65
2021/01/02 11:09:23;;;;;;;1.53;1.23;;;3.00;98.00;;;;;;5071129;28;21006;-64
2021/01/02 11:11:52;;;;;;;1.50;1.43;;;3.20;98.00;;;;;;5068416;28;20464;-65
2021/01/02 11:14:18;;;;;;;1.20;1.00;;;3.00;98.00;;;;;;5071205;28;20460;-67
2021/01/02 11:16:47;;;;;;;3.13;2.10;;;2.90;98.00;;;;;;5068587;28;20491;-66
2021/01/02 11:19:15;;;;;;;4.03;3.53;;;2.90;98.00;;;;;;5069720;28;20554;-65
2021/01/02 11:21:42;;;;;;;1.20;1.10;;;3.00;98.00;;;;;;5068007;28;21147;-65
2021/01/02 11:24:11;;;;;;;1.67;1.10;;;2.90;98.00;;;;;;5071247;28;20483;-65
2021/01/02 11:26:37;;;;;;;1.70;1.50;;;2.70;98.00;;;;;;5068795;28;20492;-66
2021/01/02 11:29:04;;;;;;;4.97;1.30;;;2.60;98.00;;;;;;5071216;28;20953;-65
2021/01/02 11:31:32;;;;;;;1.20;1.00;;;2.60;98.00;;;;;;5069421;28;20479;-65
2021/01/02 11:33:59;;;;;;;1.20;1.20;;;2.50;98.00;;;;;;5071738;28;21018;-65
2021/01/02 11:36:26;;;;;;;1.73;1.57;;;2.50;98.00;;;;;;5070100;28;20464;-65
2021/01/02 11:38:53;;;;;;;2.60;1.53;;;2.50;98.00;;;;;;5071665;28;20463;-66
2021/01/02 11:41:29;;;;;;;1.10;1.00;;;2.50;98.00;;;;;;5069768;28;20975;-65
2021/01/02 11:43:56;;;;;;;2.90;1.20;;;2.70;98.00;;;;;;5071010;28;20467;-66
2021/01/02 11:46:27;;;;;;;1.40;1.40;;;2.80;98.00;;;;;;5068958;28;20514;-67
2021/01/02 11:48:54;;;;;;;1.23;1.20;;;2.80;98.00;;;;;;5070888;28;20495;-65
2021/01/02 11:51:20;;;;;;;3.20;2.30;;;3.00;98.00;;;;;;5067498;28;20855;-67
2021/01/02 11:53:48;;;;;;;1.20;1.20;;;3.00;98.00;;;;;;5070858;28;20452;-67
2021/01/02 11:56:17;;;;;;;1.30;1.10;;;3.00;98.00;;;;;;5069151;28;20961;-67
2021/01/02 11:58:45;;;;;;;1.30;1.20;;;3.10;98.00;;;;;;5069423;28;20955;-68
2021/01/02 12:01:12;;;;;;;1.20;1.20;;;3.10;98.00;;;;;;5068756;28;20457;-67
2021/01/02 12:03:38;;;;;;;1.13;1.03;;;3.00;98.00;;;;;;5070863;28;20460;-68
2021/01/02 12:06:06;;;;;;;2.60;1.87;;;3.00;98.00;;;;;;5069443;28;20467;-66
2021/01/02 12:08:32;;;;;;;1.67;1.60;;;3.00;98.00;;;;;;5070756;28;20484;-65
2021/01/02 12:10:59;;;;;;;11.30;1.83;;;3.20;98.00;;;;;;5068343;28;20453;-67
2021/01/02 12:13:27;;;;;;;5.03;2.57;;;3.40;98.00;;;;;;5070365;28;20503;-66
2021/01/02 12:15:54;;;;;;;2.67;1.80;;;3.40;98.00;;;;;;5068559;28;20523;-67
2021/01/02 12:18:23;;;;;;;1.30;1.20;;;3.60;98.00;;;;;;5070718;28;20484;-67
2021/01/02 12:20:49;;;;;;;3.00;2.30;;;3.60;98.00;;;;;;5069650;28;20506;-68
2021/01/02 12:23:16;;;;;;;1.97;1.20;;;3.60;98.00;;;;;;5068941;28;20461;-67
2021/01/02 12:25:43;;;;;;;3.50;2.80;;;3.70;98.00;;;;;;5069095;28;20457;-67
2021/01/02 12:28:11;;;;;;;1.70;1.40;;;3.70;98.00;;;;;;5068512;28;20487;-67
2021/01/02 12:30:38;;;;;;;1.83;1.30;;;3.60;98.00;;;;;;5069481;28;20456;-66
2021/01/02 12:33:06;;;;;;;1.10;1.00;;;3.40;98.00;;;;;;5068290;28;20448;-65
2021/01/02 12:35:33;;;;;;;1.70;1.60;;;4.20;98.00;;;;;;5068932;28;20465;-65
2021/01/02 12:38:00;;;;;;;1.40;1.30;;;5.70;98.00;;;;;;5068489;28;21001;-65
2021/01/02 12:40:26;;;;;;;2.57;2.40;;;7.40;98.00;;;;;;5070505;28;20577;-68
2021/01/02 12:42:53;;;;;;;2.17;1.53;;;8.80;98.00;;;;;;5068066;28;20457;-69
2021/01/02 12:45:20;;;;;;;1.77;1.73;;;8.80;98.00;;;;;;5068963;28;20939;-67
2021/01/02 12:47:54;;;;;;;2.30;1.70;;;8.50;97.80;;;;;;5067162;28;20446;-68
2021/01/02 12:50:21;;;;;;;4.40;2.50;;;7.60;98.00;;;;;;5070335;28;20463;-67
2021/01/02 12:52:48;;;;;;;1.30;1.20;;;6.80;98.00;;;;;;5067940;28;20462;-68
2021/01/02 12:55:14;;;;;;;1.53;1.30;;;6.50;98.00;;;;;;5070159;28;20456;-67
2021/01/02 12:57:41;;;;;;;1.30;1.27;;;6.00;98.00;;;;;;5066590;28;20468;-65
2021/01/02 13:00:08;;;;;;;4.20;1.50;;;5.60;98.00;;;;;;5073750;28;20458;-65
2021/01/02 13:02:35;;;;;;;1.90;1.40;;;5.40;98.00;;;;;;5071435;28;20930;-64
2021/01/02 13:05:02;;;;;;;1.70;1.43;;;5.00;98.00;;;;;;5073575;28;20465;-65
2021/01/02 13:07:29;;;;;;;2.03;1.50;;;4.60;98.00;;;;;;5070792;28;20458;-65
2021/01/02 13:09:56;;;;;;;2.17;1.73;;;4.40;98.00;;;;;;5073722;28;20496;-64
2021/01/02 13:12:22;;;;;;;1.20;1.00;;;4.50;98.00;;;;;;5071702;28;20453;-67
2021/01/02 13:14:49;;;;;;;1.37;1.30;;;4.40;98.00;;;;;;5074010;28;20462;-65
2021/01/02 13:17:16;;;;;;;1.53;1.47;;;4.30;98.00;;;;;;5071614;28;20453;-64